Date,TemperatureHighF,TemperatureAvgF,TemperatureLowF,DewpointHighF,DewpointAvgF,DewpointLowF,HumidityHigh,HumidityAvg,HumidityLow,PressureMaxIn,PressureMinIn,WindSpeedMaxMPH,WindSpeedAvgMPH,GustSpeedMaxMPH,PrecipitationSumIn
2013-10-1,83.3,61.9,48.7,57.6,53.6,48.5,99,79,36,30.18,30.07,4,0,8,0.00
2013-10-2,84.7,66.7,51.4,63.0,57.4,51.2,99,76,41,30.19,30.08,3,0,11,0.00
2013-10-3,82.0,64.2,50.2,56.5,53.1,47.9,99,72,32,30.30,30.18,3,0,6,0.00
2013-10-4,88.3,66.3,55.4,67.2,60.0,54.2,99,83,44,30.25,30.15,3,0,8,0.00
2013-10-5,82.6,66.3,59.0,64.7,61.3,58.1,99,86,51,30.28,30.20,2,0,4,0.00
2013-10-6,64.2,61.6,60.3,64.0,59.5,3.8,99,96,10,30.32,30.24,97,1,97,0.17
2013-10-7,73.9,65.9,56.1,71.7,65.0,54.7,99,97,86,30.24,29.96,8,1,20,0.56
2013-10-8,69.8,55.2,-4.2,54.7,44.7,-24.7,99,73,32,30.52,30.12,7,1,29,0.01
2013-10-9,67.6,51.4,12.6,47.9,42.7,-2.9,99,75,41,30.60,30.48,2,0,49,0.00
2013-10-10,62.8,52.5,45.5,52.5,48.3,42.8,98,86,69,30.48,30.29,2,0,5,0.00
2013-10-11,69.1,60.4,53.2,58.2,54.2,49.9,94,81,65,30.30,30.22,4,0,6,0.00
2013-10-12,77.9,59.3,48.2,55.3,50.0,45.1,94,74,39,30.50,30.28,4,1,11,0.00
2013-10-13,70.9,56.8,47.7,50.7,48.1,45.5,99,75,44,30.50,29.87,4,0,7,0.00
2013-10-14,72.9,53.1,40.1,56.0,46.0,39.8,99,81,37,29.90,29.77,2,0,7,0.00
2013-10-15,78.3,57.8,46.6,61.3,46.4,31.7,99,72,27,29.79,29.66,2,0,5,0.00
2013-10-16,64.8,53.7,45.3,54.6,49.6,43.1,96,87,63,29.66,29.45,0,0,4,0.00
2013-10-17,78.8,65.3,57.2,71.9,60.7,54.1,99,87,43,29.45,29.23,4,0,12,0.04
2013-10-18,71.2,61.2,51.1,62.5,46.6,36.7,99,62,32,29.48,29.18,5,2,15,0.04
2013-10-19,67.8,54.1,39.9,53.7,41.9,36.7,97,66,34,29.51,29.28,5,0,12,0.02
2013-10-20,64.9,54.1,43.7,54.4,38.9,30.3,99,61,30,29.57,29.26,6,1,15,0.02
2013-10-21,72.3,52.1,38.1,46.0,37.1,12.7,94,63,10,29.66,29.50,7,1,10,0.00
2013-10-22,69.8,53.9,43.9,52.4,46.5,39.4,99,79,43,29.50,29.26,5,1,11,0.00
2013-10-23,47.1,40.7,34.3,41.1,36.3,31.3,99,85,54,29.98,29.23,2,0,5,0.00
2013-10-24,57.7,44.1,36.1,35.6,28.7,21.7,86,58,27,30.21,29.97,8,2,15,0.00
2013-10-25,52.5,42.2,33.8,32.1,27.5,25.2,79,57,35,30.45,30.21,5,1,16,0.00
2013-10-26,55.4,44.5,32.0,32.6,28.4,22.0,95,57,28,30.44,30.14,10,2,19,0.09
2013-10-27,59.4,48.6,40.6,33.0,29.1,22.2,70,48,26,30.34,30.09,7,1,16,0.00
2013-10-28,63.1,48.1,34.0,32.2,30.0,26.5,81,53,25,30.58,30.34,7,1,14,0.00
2013-10-29,55.4,42.0,35.8,28.7,25.9,21.8,73,54,31,30.68,30.58,4,0,9,0.00
2013-10-30,54.3,43.9,35.1,42.1,35.4,27.8,97,73,53,30.60,30.44,2,0,4,0.00
2013-10-31,63.1,51.8,37.0,60.2,50.5,36.8,99,95,84,30.49,30.07,7,1,17,0.13